createdAt,value
2024-01-15T00:02:10.001Z,18.25
2024-01-15T00:04:41.603Z,17.85
2024-01-15T00:07:10.437Z,17.08
2024-01-15T00:09:38.213Z,13.93
2024-01-15T00:12:06.608Z,14.20
2024-01-15T00:14:34.360Z,15.05
2024-01-15T00:17:01.992Z,16.77
2024-01-15T00:19:29.727Z,13.02
2024-01-15T00:21:58.500Z,16.40
2024-01-15T00:24:26.425Z,17.83
2024-01-15T00:26:55.240Z,16.50
2024-01-15T00:29:23.057Z,18.48
2024-01-15T00:31:50.822Z,15.60
2024-01-15T00:34:18.560Z,20.23
2024-01-15T00:36:46.352Z,14.30
2024-01-15T00:39:13.946Z,16.27
2024-01-15T00:41:41.670Z,16.90
2024-01-15T00:44:09.227Z,22.45
2024-01-15T00:46:47.491Z,21.52
2024-01-15T00:49:15.698Z,18.38
2024-01-15T00:51:43.590Z,13.90
2024-01-15T00:54:11.456Z,18.17
2024-01-15T00:56:39.083Z,18.70
2024-01-15T00:59:07.111Z,20.05
2024-01-15T01:01:34.869Z,18.27
2024-01-15T01:04:02.779Z,20.98
2024-01-15T01:06:33.435Z,21.20
2024-01-15T01:09:01.884Z,22.55
2024-01-15T01:11:29.518Z,23.25
2024-01-15T01:13:58.028Z,21.75
2024-01-15T01:16:25.539Z,20.30
2024-01-15T01:18:53.696Z,24.83
2024-01-15T01:21:21.498Z,24.90
2024-01-15T01:23:49.197Z,25.48
2024-01-15T01:26:18.403Z,19.27
2024-01-15T01:28:46.078Z,22.70
2024-01-15T01:31:13.888Z,24.00
2024-01-15T01:33:41.993Z,21.83
2024-01-15T01:36:11.070Z,20.75
2024-01-15T01:38:39.605Z,24.08
2024-01-15T01:41:07.206Z,20.05
2024-01-15T01:43:34.955Z,20.63
2024-01-15T01:46:04.465Z,18.38
2024-01-15T01:48:33.517Z,19.92
2024-01-15T01:51:05.303Z,21.90
2024-01-15T01:53:36.253Z,20.15
2024-01-15T01:56:04.452Z,20.45
2024-01-15T01:58:33.776Z,19.60
2024-01-15T02:01:01.677Z,21.73
2024-01-15T02:03:29.939Z,18.00
2024-01-15T02:05:58.303Z,23.35
2024-01-15T02:08:26.852Z,20.50
2024-01-15T02:10:54.712Z,19.23
2024-01-15T02:13:22.290Z,21.67
2024-01-15T02:15:50.172Z,18.17
2024-01-15T02:18:17.965Z,19.75
2024-01-15T02:20:45.842Z,27.65
2024-01-15T02:23:15.411Z,20.20
2024-01-15T02:25:48.093Z,18.45
2024-01-15T02:28:18.051Z,20.30
2024-01-15T02:30:46.273Z,22.27
2024-01-15T02:33:14.861Z,21.88
2024-01-15T02:35:42.755Z,23.92
2024-01-15T02:38:10.464Z,21.90
2024-01-15T02:40:38.165Z,21.08
2024-01-15T02:43:05.703Z,22.05
2024-01-15T02:45:33.377Z,21.80
2024-01-15T02:48:01.050Z,23.83
2024-01-15T02:50:28.666Z,21.50
2024-01-15T02:52:56.201Z,26.42
2024-01-15T02:55:23.954Z,23.90
2024-01-15T02:57:51.624Z,22.33
2024-01-15T03:00:19.542Z,28.40
2024-01-15T03:02:48.854Z,21.08
2024-01-15T03:05:17.128Z,23.85
2024-01-15T03:07:44.946Z,22.52
2024-01-15T03:10:12.632Z,26.48
2024-01-15T03:12:40.256Z,21.92
2024-01-15T03:15:08.121Z,22.13
2024-01-15T03:17:35.852Z,22.85
2024-01-15T03:20:04.599Z,27.85
2024-01-15T03:22:32.284Z,22.70
2024-01-15T03:25:00.018Z,25.90
2024-01-15T03:27:27.731Z,25.63
2024-01-15T03:29:55.453Z,24.75
2024-01-15T03:32:23.102Z,22.52
2024-01-15T03:34:51.002Z,25.15
2024-01-15T03:37:18.555Z,25.15
2024-01-15T03:39:46.378Z,21.48
2024-01-15T03:42:15.647Z,27.45
2024-01-15T03:44:43.310Z,27.33
2024-01-15T03:47:10.870Z,25.45
2024-01-15T03:49:38.667Z,25.63
2024-01-15T03:52:06.552Z,31.48
2024-01-15T03:54:34.278Z,56.25
2024-01-15T03:57:01.784Z,32.08
2024-01-15T03:59:29.450Z,25.98
2024-01-15T04:01:57.118Z,26.88
2024-01-15T04:04:24.982Z,24.73
2024-01-15T04:06:52.707Z,23.58
2024-01-15T04:09:20.384Z,25.10
2024-01-15T04:11:47.940Z,26.80
2024-01-15T04:14:15.541Z,26.38
2024-01-15T04:16:43.074Z,25.58
2024-01-15T04:19:10.909Z,28.63
2024-01-15T04:21:38.673Z,23.70
2024-01-15T04:24:06.588Z,27.75
2024-01-15T04:26:34.182Z,26.27
2024-01-15T04:29:01.970Z,26.42
2024-01-15T04:31:29.732Z,35.90
2024-01-15T04:33:57.786Z,28.25
2024-01-15T04:36:25.531Z,27.42
2024-01-15T04:38:53.179Z,27.65
2024-01-15T04:41:21.027Z,27.42
2024-01-15T04:43:48.668Z,25.25
2024-01-15T04:46:16.443Z,29.00
2024-01-15T04:48:44.266Z,25.58
2024-01-15T04:51:12.109Z,26.77
2024-01-15T04:53:39.784Z,26.60
2024-01-15T04:56:07.472Z,28.10
2024-01-15T04:58:35.192Z,25.80
2024-01-15T05:01:03.056Z,32.33
2024-01-15T05:03:31.193Z,29.85
2024-01-15T05:05:58.905Z,31.33
2024-01-15T05:08:28.057Z,27.52
2024-01-15T05:10:55.707Z,26.40
2024-01-15T05:13:23.372Z,32.25
2024-01-15T05:15:51.058Z,32.75
2024-01-15T05:18:19.143Z,28.20
2024-01-15T05:20:47.097Z,28.90
2024-01-15T05:23:14.910Z,27.77
2024-01-15T05:25:42.458Z,28.02
2024-01-15T05:28:10.185Z,28.83
2024-01-15T05:30:37.838Z,25.60
2024-01-15T05:33:06.025Z,30.27
2024-01-15T05:35:33.688Z,26.55
2024-01-15T05:38:01.392Z,32.63
2024-01-15T05:40:29.042Z,30.33
2024-01-15T05:42:56.830Z,26.27
2024-01-15T05:45:24.605Z,25.95
2024-01-15T05:47:52.491Z,30.50
2024-01-15T05:50:20.217Z,27.02
2024-01-15T05:52:47.965Z,26.65
2024-01-15T05:55:15.610Z,29.63
2024-01-15T05:57:43.398Z,25.58
2024-01-15T06:00:11.598Z,27.30
2024-01-15T06:02:40.764Z,28.85
2024-01-15T06:05:08.760Z,23.70
2024-01-15T06:07:37.447Z,26.08
2024-01-15T06:10:08.080Z,29.40
2024-01-15T06:12:35.847Z,24.63
2024-01-15T06:15:03.909Z,27.33
2024-01-15T06:17:32.843Z,28.05
2024-01-15T06:20:00.621Z,28.40
2024-01-15T06:22:28.492Z,26.05
2024-01-15T06:24:56.844Z,26.50
2024-01-15T06:27:24.521Z,22.52
2024-01-15T06:29:52.205Z,24.13
2024-01-15T06:32:19.921Z,27.13
2024-01-15T06:34:47.709Z,25.95
2024-01-15T06:37:15.571Z,23.23
2024-01-15T06:39:43.235Z,22.40
2024-01-15T06:42:11.031Z,26.65
2024-01-15T06:44:38.625Z,26.58
2024-01-15T06:47:06.933Z,22.15
2024-01-15T06:49:34.705Z,25.40
2024-01-15T06:52:02.502Z,26.65
2024-01-15T06:54:30.765Z,20.65
2024-01-15T06:56:58.547Z,22.67
2024-01-15T06:59:26.337Z,21.63
2024-01-15T07:01:54.221Z,22.75
2024-01-15T07:04:22.003Z,20.08
2024-01-15T07:06:49.948Z,22.30
2024-01-15T07:09:18.130Z,21.83
2024-01-15T07:11:47.959Z,21.08
2024-01-15T07:14:15.742Z,21.73
2024-01-15T07:16:46.185Z,18.80
2024-01-15T07:19:15.922Z,20.40
2024-01-15T07:21:44.650Z,20.13
2024-01-15T07:24:12.727Z,21.05
2024-01-15T07:26:40.853Z,20.23
2024-01-15T07:29:08.657Z,18.27
2024-01-15T07:31:36.437Z,21.70
2024-01-15T07:34:04.222Z,19.38
2024-01-15T07:36:31.948Z,21.02
2024-01-15T07:38:59.668Z,16.58
2024-01-15T07:41:27.249Z,21.00
2024-01-15T07:43:55.030Z,19.42
2024-01-15T07:46:22.835Z,22.52
2024-01-15T07:48:53.032Z,21.55
2024-01-15T07:51:20.837Z,17.58
2024-01-15T07:53:48.626Z,20.15
2024-01-15T07:56:16.355Z,24.83
2024-01-15T07:58:43.908Z,19.85
2024-01-15T08:01:11.945Z,15.80
2024-01-15T08:03:39.814Z,18.83
2024-01-15T08:06:07.809Z,20.25
2024-01-15T08:08:35.526Z,16.55
2024-01-15T08:11:03.205Z,17.95
2024-01-15T08:13:32.089Z,18.55
2024-01-15T08:16:00.249Z,16.65
2024-01-15T08:18:28.140Z,18.58
2024-01-15T08:20:56.021Z,18.10
2024-01-15T08:23:23.750Z,22.15
2024-01-15T08:25:52.237Z,18.77
2024-01-15T08:28:19.884Z,14.80
2024-01-15T08:30:48.148Z,18.35
2024-01-15T08:33:21.868Z,22.45
2024-01-15T08:35:50.405Z,21.33
2024-01-15T08:38:18.174Z,21.30
2024-01-15T08:40:45.986Z,16.60
2024-01-15T08:43:13.674Z,14.98
2024-01-15T08:45:41.780Z,16.17
2024-01-15T08:48:09.687Z,16.70
2024-01-15T08:50:37.466Z,19.42
2024-01-15T08:53:05.782Z,15.68
2024-01-15T08:55:34.218Z,15.45
2024-01-15T08:58:01.918Z,17.20
2024-01-15T09:00:29.941Z,15.40
2024-01-15T09:02:58.066Z,14.15
2024-01-15T09:05:26.166Z,13.65
2024-01-15T09:07:53.922Z,16.05
2024-01-15T09:10:21.836Z,12.48
2024-01-15T09:12:50.805Z,13.45
2024-01-15T09:15:18.997Z,11.05
2024-01-15T09:17:47.498Z,12.07
2024-01-15T09:20:15.934Z,15.50
2024-01-15T09:22:43.905Z,11.82
2024-01-15T09:25:11.836Z,14.80
2024-01-15T09:27:39.719Z,17.27
2024-01-15T09:30:08.191Z,16.55
2024-01-15T09:32:36.034Z,12.25
2024-01-15T09:35:04.106Z,12.93
2024-01-15T09:37:41.855Z,11.38
2024-01-15T09:40:18.752Z,12.15
2024-01-15T09:42:47.732Z,14.00
2024-01-15T09:45:16.428Z,17.95
2024-01-15T09:47:46.175Z,9.57
2024-01-15T09:50:16.741Z,11.32
2024-01-15T09:52:46.427Z,13.60
2024-01-15T09:55:16.707Z,15.32
2024-01-15T09:57:47.447Z,11.40
2024-01-15T10:00:18.899Z,10.55
2024-01-15T10:02:47.128Z,9.18
2024-01-15T10:05:15.377Z,13.20
2024-01-15T10:07:44.263Z,11.13
2024-01-15T10:10:13.124Z,12.27
2024-01-15T10:12:41.041Z,11.02
2024-01-15T10:15:12.301Z,14.25
2024-01-15T10:17:41.237Z,12.23
2024-01-15T10:20:13.850Z,12.50
2024-01-15T10:22:43.980Z,11.60
2024-01-15T10:25:12.417Z,12.73
2024-01-15T10:27:41.471Z,13.65
2024-01-15T10:30:11.390Z,12.55
2024-01-15T10:32:39.241Z,11.35
2024-01-15T10:35:08.860Z,12.48
2024-01-15T10:37:36.615Z,13.15
2024-01-15T10:40:06.561Z,12.50
2024-01-15T10:42:34.473Z,12.15
2024-01-15T10:45:02.692Z,14.10
2024-01-15T10:47:32.231Z,12.70
2024-01-15T10:50:01.389Z,14.02
2024-01-15T10:52:31.451Z,13.68
2024-01-15T10:55:03.843Z,10.65
2024-01-15T10:57:35.955Z,9.95
2024-01-15T11:00:06.869Z,10.63
2024-01-15T11:02:37.521Z,10.27
2024-01-15T11:05:05.715Z,12.13
2024-01-15T11:07:34.259Z,10.80
2024-01-15T11:10:05.114Z,11.63
2024-01-15T11:12:34.158Z,12.98
2024-01-15T11:15:06.056Z,9.02
2024-01-15T11:18:05.093Z,14.48
2024-01-15T11:20:34.021Z,10.57
2024-01-15T11:23:01.689Z,9.25
2024-01-15T11:25:38.906Z,10.57
2024-01-15T11:28:06.876Z,9.90
2024-01-15T11:30:37.685Z,14.23
2024-01-15T11:33:08.972Z,11.23
2024-01-15T11:35:52.245Z,12.23
2024-01-15T11:38:31.000Z,12.00
2024-01-15T11:41:01.075Z,9.52
2024-01-15T11:43:33.003Z,10.82
2024-01-15T11:46:04.248Z,13.63
2024-01-15T11:48:43.715Z,14.20
2024-01-15T11:51:13.833Z,11.43
2024-01-15T11:53:46.873Z,12.57
2024-01-15T11:56:18.311Z,12.32
2024-01-15T11:58:46.549Z,9.70
2024-01-15T12:01:14.720Z,7.25
2024-01-15T12:03:42.588Z,16.92
2024-01-15T12:06:11.737Z,9.93
2024-01-15T12:08:39.606Z,11.25
2024-01-15T12:11:12.348Z,13.85
2024-01-15T12:13:40.372Z,12.25
2024-01-15T12:16:08.140Z,10.93
2024-01-15T12:18:36.187Z,12.15
2024-01-15T12:21:05.686Z,14.07
2024-01-15T12:23:35.010Z,11.55
2024-01-15T12:26:02.848Z,16.63
2024-01-15T12:28:30.949Z,11.43
2024-01-15T12:31:00.664Z,12.50
2024-01-15T12:33:29.462Z,11.95
2024-01-15T12:35:57.400Z,11.60
2024-01-15T12:38:25.109Z,13.30
2024-01-15T12:40:52.778Z,11.93
2024-01-15T12:43:21.352Z,11.25
2024-01-15T12:45:49.163Z,12.98
2024-01-15T12:48:19.571Z,14.05
2024-01-15T12:50:49.175Z,13.93
2024-01-15T12:53:17.572Z,10.75
2024-01-15T12:55:45.321Z,12.63
2024-01-15T12:58:13.301Z,10.60
2024-01-15T13:00:41.352Z,11.95
2024-01-15T13:03:09.127Z,12.82
2024-01-15T13:05:37.990Z,16.00
2024-01-15T13:08:06.349Z,14.00
2024-01-15T13:10:34.329Z,17.23
2024-01-15T13:13:02.198Z,15.02
2024-01-15T13:15:30.054Z,15.13
2024-01-15T13:17:57.835Z,13.90
2024-01-15T13:20:25.722Z,14.40
2024-01-15T13:22:53.742Z,15.75
2024-01-15T13:25:22.487Z,16.08
2024-01-15T13:27:50.944Z,14.40
2024-01-15T13:30:18.979Z,14.48
2024-01-15T13:32:47.072Z,16.73
2024-01-15T13:35:15.093Z,15.70
2024-01-15T13:37:42.998Z,17.65
2024-01-15T13:40:11.416Z,19.30
2024-01-15T13:42:42.004Z,15.07
2024-01-15T13:45:10.149Z,15.65
2024-01-15T13:47:39.134Z,17.65
2024-01-15T13:50:08.465Z,17.00
2024-01-15T13:52:36.390Z,17.42
2024-01-15T13:55:04.405Z,15.88
2024-01-15T13:57:32.171Z,14.23
2024-01-15T13:59:59.923Z,22.25
2024-01-15T14:02:27.990Z,17.13
2024-01-15T14:04:55.821Z,21.83
2024-01-15T14:07:24.501Z,29.33
2024-01-15T14:09:52.506Z,17.25
2024-01-15T14:12:20.290Z,12.80
2024-01-15T14:14:49.290Z,17.23
2024-01-15T14:17:17.023Z,13.13
2024-01-15T14:19:44.783Z,11.10
2024-01-15T14:22:12.563Z,16.05
2024-01-15T14:24:40.529Z,15.10
2024-01-15T14:27:08.569Z,13.68
2024-01-15T14:29:37.221Z,18.25
2024-01-15T14:32:05.420Z,14.35
2024-01-15T14:34:33.505Z,13.80
2024-01-15T14:37:01.559Z,11.13
2024-01-15T14:39:29.564Z,12.63
2024-01-15T14:41:58.298Z,10.13
2024-01-15T14:44:26.126Z,12.40
2024-01-15T14:46:53.927Z,14.20
2024-01-15T14:49:21.899Z,14.50
2024-01-15T14:51:50.994Z,13.18
2024-01-15T14:54:20.007Z,14.32
2024-01-15T14:56:48.891Z,13.57
2024-01-15T14:59:16.626Z,15.23
2024-01-15T15:01:44.915Z,15.65
2024-01-15T15:04:12.817Z,19.05
2024-01-15T15:06:41.087Z,43.42
2024-01-15T15:09:11.362Z,19.48
2024-01-15T15:11:39.305Z,16.08
2024-01-15T15:14:07.103Z,16.55
2024-01-15T15:16:35.321Z,15.85
2024-01-15T15:19:03.338Z,15.10
2024-01-15T15:21:31.654Z,17.95
2024-01-15T15:23:59.341Z,15.32
2024-01-15T15:26:27.591Z,15.02
2024-01-15T15:28:55.581Z,14.75
2024-01-15T15:31:23.678Z,17.73
2024-01-15T15:33:51.806Z,18.95
2024-01-15T15:36:20.486Z,16.27
2024-01-15T15:38:48.464Z,17.17
2024-01-15T15:41:18.459Z,17.92
2024-01-15T15:43:46.382Z,15.98
2024-01-15T15:46:14.139Z,17.13
2024-01-15T15:48:42.249Z,17.80
2024-01-15T15:51:10.641Z,15.82
2024-01-15T15:53:39.145Z,15.02
2024-01-15T15:56:07.776Z,19.25
2024-01-15T16:03:14.689Z,15.32
2024-01-15T16:05:49.734Z,15.32
2024-01-15T16:08:21.769Z,18.00
2024-01-15T16:10:51.921Z,16.95
2024-01-15T16:13:20.563Z,17.15
2024-01-15T16:15:49.106Z,17.63
2024-01-15T16:23:20.219Z,18.13
2024-01-15T16:23:34.962Z,16.02
2024-01-15T16:24:12.471Z,17.90
2024-01-15T16:26:43.486Z,17.85
2024-01-15T16:29:11.416Z,18.05
2024-01-15T16:31:39.758Z,25.98
2024-01-15T16:34:09.724Z,20.58
2024-01-15T16:36:39.604Z,23.25
2024-01-15T16:39:07.266Z,19.63
2024-01-15T16:41:34.981Z,19.80
2024-01-15T16:44:02.719Z,17.15
2024-01-15T16:46:30.298Z,21.45
2024-01-15T16:48:58.054Z,17.95
2024-01-15T16:51:25.728Z,19.70
2024-01-15T16:53:53.221Z,19.98
2024-01-15T16:56:21.584Z,20.75
2024-01-15T16:58:49.051Z,18.23
2024-01-15T17:01:16.673Z,23.02
2024-01-15T17:03:44.517Z,20.48
2024-01-15T17:06:12.176Z,26.00
2024-01-15T17:08:39.848Z,22.90
2024-01-15T17:11:07.558Z,22.45
2024-01-15T17:13:35.559Z,22.08
2024-01-15T17:16:04.322Z,22.00
2024-01-15T17:18:31.938Z,18.60
2024-01-15T17:20:59.755Z,20.52
2024-01-15T17:23:27.327Z,20.15
2024-01-15T17:25:55.060Z,19.42
2024-01-15T17:28:24.544Z,19.63
2024-01-15T17:30:52.414Z,16.98
2024-01-15T17:33:20.731Z,18.17
2024-01-15T17:35:58.381Z,15.90
2024-01-15T17:38:26.212Z,16.73
2024-01-15T17:40:53.695Z,15.70
2024-01-15T17:43:21.757Z,14.55
2024-01-15T17:45:50.133Z,15.82
2024-01-15T17:50:47.647Z,15.20
2024-01-15T17:53:15.306Z,19.73
2024-01-15T17:55:43.587Z,17.77
2024-01-15T17:58:11.414Z,22.75
2024-01-15T18:00:38.990Z,22.00
2024-01-15T18:03:06.727Z,17.25
2024-01-15T18:05:34.523Z,20.92
2024-01-15T18:08:02.945Z,18.17
2024-01-15T18:10:30.553Z,18.25
2024-01-15T18:12:58.278Z,24.63
2024-01-15T18:15:25.877Z,17.70
2024-01-15T18:17:54.502Z,18.25
2024-01-15T18:20:22.352Z,20.05
2024-01-15T18:22:51.670Z,21.67
2024-01-15T18:25:20.029Z,18.80
2024-01-15T18:27:47.692Z,19.50
2024-01-15T18:30:15.607Z,21.65
2024-01-15T18:32:43.324Z,18.52
2024-01-15T18:35:10.997Z,19.13
2024-01-15T18:37:38.568Z,21.77
2024-01-15T18:40:07.780Z,19.10
2024-01-15T18:42:35.821Z,16.65
2024-01-15T18:45:03.404Z,22.58
2024-01-15T18:47:31.501Z,19.67
2024-01-15T18:49:59.122Z,15.82
2024-01-15T18:52:27.568Z,16.33
2024-01-15T18:54:55.103Z,18.67
2024-01-15T18:57:22.664Z,19.10
2024-01-15T18:59:50.344Z,17.88
2024-01-15T19:02:17.961Z,19.35
2024-01-15T19:04:45.668Z,16.88
2024-01-15T19:07:13.334Z,15.20
2024-01-15T19:09:40.935Z,23.25
2024-01-15T19:12:08.624Z,27.88
2024-01-15T19:14:36.255Z,26.27
2024-01-15T19:17:06.033Z,24.80
2024-01-15T19:19:38.285Z,22.65
2024-01-15T19:22:06.294Z,21.60
2024-01-15T19:24:33.806Z,20.75
2024-01-15T19:27:01.422Z,12.10
2024-01-15T19:29:29.432Z,15.65
2024-01-15T19:31:59.648Z,14.57
2024-01-15T19:34:27.707Z,15.18
2024-01-15T19:36:55.394Z,14.68
2024-01-15T19:39:24.372Z,14.20
2024-01-15T19:41:52.244Z,13.10
2024-01-15T19:44:19.800Z,18.30
2024-01-15T19:46:48.585Z,17.50
2024-01-15T19:49:16.276Z,16.83
2024-01-15T19:51:44.736Z,15.30
2024-01-15T19:54:12.421Z,17.40
2024-01-15T19:56:40.110Z,14.75
2024-01-15T19:59:07.879Z,15.90
2024-01-15T20:01:35.479Z,16.90
2024-01-15T20:04:05.031Z,16.25
2024-01-15T20:06:32.964Z,15.70
2024-01-15T20:09:00.711Z,15.13
2024-01-15T20:11:28.353Z,14.60
2024-01-15T20:13:55.944Z,18.15
2024-01-15T20:16:25.399Z,21.58
2024-01-15T20:18:53.278Z,15.25
2024-01-15T20:21:20.889Z,21.75
2024-01-15T20:23:55.305Z,16.80
2024-01-15T20:26:26.623Z,17.27
2024-01-15T20:28:55.679Z,12.85
2024-01-15T20:31:23.326Z,15.23
2024-01-15T20:33:51.624Z,11.18
2024-01-15T20:36:19.358Z,12.02
2024-01-15T20:38:47.287Z,11.02
2024-01-15T20:41:17.538Z,15.52
2024-01-15T20:43:45.450Z,15.35
2024-01-15T20:46:13.203Z,12.55
2024-01-15T20:48:41.020Z,19.13
2024-01-15T20:51:11.733Z,14.95
2024-01-15T20:53:43.028Z,12.43
2024-01-15T20:56:11.500Z,12.07
2024-01-15T20:58:39.192Z,14.18
2024-01-15T21:01:07.688Z,17.13
2024-01-15T21:03:36.390Z,12.60
2024-01-15T21:06:04.618Z,19.48
2024-01-15T21:08:32.418Z,13.15
2024-01-15T21:11:01.200Z,14.82
2024-01-15T21:13:28.796Z,14.45
2024-01-15T21:15:56.360Z,14.48
2024-01-15T21:18:25.475Z,13.80
2024-01-15T21:20:53.161Z,12.80
2024-01-15T21:23:20.713Z,10.82
2024-01-15T21:25:48.394Z,10.95
2024-01-15T21:28:15.861Z,13.30
2024-01-15T21:30:43.567Z,14.50
2024-01-15T21:33:12.528Z,12.38
2024-01-15T21:35:40.782Z,8.63
2024-01-15T21:38:08.375Z,9.73
2024-01-15T21:40:35.998Z,7.82
2024-01-15T21:43:03.664Z,6.95
2024-01-15T21:45:31.582Z,6.65
2024-01-15T21:47:59.236Z,5.60
2024-01-15T21:50:27.016Z,8.20
2024-01-15T21:52:54.564Z,6.07
2024-01-15T21:55:22.202Z,5.95
2024-01-15T21:57:49.735Z,5.55
2024-01-15T22:00:17.900Z,6.85
2024-01-15T22:02:46.804Z,7.20
2024-01-15T22:05:14.935Z,7.53
2024-01-15T22:07:43.427Z,8.05
2024-01-15T22:10:11.761Z,6.30
2024-01-15T22:12:39.301Z,4.88
2024-01-15T22:15:07.436Z,4.57
2024-01-15T22:17:35.009Z,5.93
2024-01-15T22:20:02.755Z,4.30
2024-01-15T22:22:30.360Z,3.45
2024-01-15T22:24:57.887Z,3.65
2024-01-15T22:27:25.487Z,3.70
2024-01-15T22:29:54.782Z,4.38
2024-01-15T22:32:23.744Z,3.15
2024-01-15T22:34:51.474Z,6.45
2024-01-15T22:37:19.070Z,8.48
2024-01-15T22:39:46.710Z,10.88
2024-01-15T22:42:14.354Z,8.00
2024-01-15T22:44:42.148Z,7.18
2024-01-15T22:47:09.752Z,9.65
2024-01-15T22:49:37.292Z,14.05
2024-01-15T22:52:05.307Z,11.23
2024-01-15T22:54:32.789Z,8.90
2024-01-15T22:57:00.451Z,10.52
2024-01-15T22:59:27.995Z,10.35
2024-01-15T23:01:55.535Z,9.20
2024-01-15T23:04:23.177Z,9.45
2024-01-15T23:06:50.739Z,12.07
2024-01-15T23:09:18.984Z,11.27
2024-01-15T23:11:49.549Z,11.80
2024-01-15T23:14:17.446Z,9.07
2024-01-15T23:16:45.043Z,9.63
2024-01-15T23:19:12.662Z,14.48
2024-01-15T23:21:40.281Z,7.68
2024-01-15T23:24:09.073Z,7.32
2024-01-15T23:26:36.623Z,9.18
2024-01-15T23:29:04.805Z,9.07
2024-01-15T23:31:32.380Z,8.68
2024-01-15T23:34:00.155Z,4.22
2024-01-15T23:36:27.755Z,7.25
2024-01-15T23:38:55.442Z,7.47
2024-01-15T23:41:23.094Z,5.78
2024-01-15T23:43:50.796Z,12.32
2024-01-15T23:46:20.002Z,6.53
2024-01-15T23:48:48.163Z,11.25
2024-01-15T23:51:15.754Z,10.23
2024-01-15T23:53:43.553Z,8.10
2024-01-15T23:56:13.888Z,8.57
2024-01-15T23:58:41.910Z,6.85
